Terminal Aerodrome Forecast
Issued by NWS

Home | Current Version | Previous Version | Graphics & Text | Print | Product List | Glossary On
Versions: 1 2 3 4 5 6 7 8 9 10 11 12 13 14 15 16 17 18 19 20 21 22 23
000
FTUS41 KCLE 131100
TAFFDY
TAF
KFDY 131137Z 1312/1412 30010KT P6SM OVC035
     FM131400 32012KT P6SM OVC007
     FM131600 32012KT P6SM OVC015
     FM131800 32008KT P6SM BKN035
     FM132100 VRB03KT P6SM SCT035
     FM140000 00000KT P6SM SKC=

USA.gov is the U.S. government's official web portal to all federal, state and local government web resources and services.